Time;durP1;ratioP1;P1;durP2;ratioP2;P2;SDS_P1;SDS_P2;PMS_P1;PMS_P2;Temp;Humidity;BMP_temperature;BMP_pressure;BME280_temperature;BME280_humidity;BME280_pressure;Samples;Min_cycle;Max_cycle;Signal;HPM_P1;HPM_P2
2021/07/21 00:01:15;;;;;;;7.40;6.60;;;18.50;93.80;;;;;;6237909;23;20400;-84
2021/07/21 00:03:41;;;;;;;8.13;7.40;;;18.50;94.00;;;;;;6237901;23;20408;-84
2021/07/21 00:06:08;;;;;;;8.50;7.80;;;18.50;94.10;;;;;;6238248;23;20412;-84
2021/07/21 00:08:35;;;;;;;8.50;7.60;;;18.50;94.00;;;;;;6237766;23;20406;-84
2021/07/21 00:13:47;;;;;;;11.03;7.17;;;18.50;94.40;;;;;;6238080;23;20383;-84
2021/07/21 00:16:16;;;;;;;7.73;7.03;;;18.50;94.50;;;;;;6238033;23;20471;-84
2021/07/21 00:18:50;;;;;;;9.00;8.10;;;18.50;94.40;;;;;;6237861;23;20966;-84
2021/07/21 00:21:21;;;;;;;11.23;8.30;;;18.50;94.50;;;;;;6237818;23;20401;-84
2021/07/21 00:23:48;;;;;;;9.00;8.10;;;18.50;94.60;;;;;;6237476;23;20722;-84
2021/07/21 00:26:15;;;;;;;9.23;6.87;;;18.50;94.70;;;;;;6236454;23;20432;-87
2021/07/21 00:28:42;;;;;;;8.43;7.20;;;18.50;94.80;;;;;;6235063;23;20445;-84
2021/07/21 00:31:10;;;;;;;8.00;6.70;;;18.50;94.90;;;;;;6238432;23;20471;-86
2021/07/21 00:33:37;;;;;;;8.83;8.03;;;18.40;94.80;;;;;;6239258;23;20411;-85
2021/07/21 00:36:05;;;;;;;9.33;8.10;;;18.40;95.00;;;;;;6239353;23;20408;-85
2021/07/21 00:38:32;;;;;;;8.67;7.43;;;18.40;95.10;;;;;;6239324;23;20454;-85
2021/07/21 00:40:59;;;;;;;7.83;6.90;;;18.30;95.20;;;;;;6240137;23;20422;-85
2021/07/21 00:43:28;;;;;;;11.07;8.87;;;18.30;95.30;;;;;;6239638;23;20408;-85
2021/07/21 00:45:54;;;;;;;9.40;8.40;;;18.30;95.40;;;;;;6239599;23;20408;-85
2021/07/21 00:48:22;;;;;;;9.97;8.07;;;18.20;95.40;;;;;;6239385;23;20422;-85
2021/07/21 00:50:53;;;;;;;8.80;7.90;;;18.20;95.60;;;;;;6238695;23;20483;-85
2021/07/21 00:53:19;;;;;;;10.40;8.43;;;18.10;95.60;;;;;;6238816;23;20387;-85
2021/07/21 00:55:47;;;;;;;10.40;8.70;;;18.00;95.70;;;;;;6239893;23;20408;-85
2021/07/21 00:58:14;;;;;;;11.50;8.60;;;18.00;95.80;;;;;;6239897;23;20486;-85
2021/07/21 01:00:41;;;;;;;9.37;8.30;;;18.00;96.10;;;;;;6239485;23;20438;-85
2021/07/21 01:03:08;;;;;;;8.80;8.00;;;17.90;96.20;;;;;;6239402;23;20413;-85
2021/07/21 01:05:41;;;;;;;8.60;7.80;;;17.90;96.40;;;;;;6239729;23;20401;-85
2021/07/21 01:08:09;;;;;;;9.33;8.40;;;17.80;96.50;;;;;;6239475;23;20459;-85
2021/07/21 01:10:37;;;;;;;8.70;7.80;;;17.80;96.60;;;;;;6239894;23;20408;-85
2021/07/21 01:13:12;;;;;;;8.57;7.67;;;17.80;96.70;;;;;;6239355;23;20418;-85
2021/07/21 01:15:43;;;;;;;9.00;7.27;;;17.70;96.70;;;;;;6239693;23;20499;-85
2021/07/21 01:18:14;;;;;;;9.20;8.37;;;17.60;96.60;;;;;;6238995;23;20423;-85
2021/07/21 01:21:14;;;;;;;9.43;8.30;;;17.60;96.70;;;;;;6239872;23;20380;-86
2021/07/21 01:24:14;;;;;;;9.30;7.60;;;17.50;96.80;;;;;;6239424;23;20452;-85
2021/07/21 01:26:49;;;;;;;11.60;8.47;;;17.50;97.10;;;;;;6169008;23;20469;-84
2021/07/21 01:29:21;;;;;;;11.07;8.60;;;17.50;97.30;;;;;;6239789;23;20392;-85
2021/07/21 01:31:51;;;;;;;9.67;8.67;;;17.40;97.50;;;;;;6238752;23;20407;-85
2021/07/21 01:34:19;;;;;;;10.40;7.87;;;17.40;97.80;;;;;;6238812;23;20396;-85
2021/07/21 01:36:51;;;;;;;8.83;7.90;;;17.30;97.90;;;;;;6239193;23;20443;-85
2021/07/21 01:39:25;;;;;;;11.00;7.50;;;17.30;97.90;;;;;;6239112;23;20431;-85
2021/07/21 01:41:56;;;;;;;9.83;7.43;;;17.30;98.10;;;;;;6238654;23;20392;-85
2021/07/21 01:44:27;;;;;;;8.57;7.27;;;17.20;98.30;;;;;;6239403;23;20394;-85
2021/07/21 01:46:56;;;;;;;11.57;8.80;;;17.10;98.50;;;;;;6238540;23;20428;-85
2021/07/21 01:49:28;;;;;;;12.43;8.27;;;17.10;98.70;;;;;;6239708;23;20458;-85
2021/07/21 01:51:56;;;;;;;10.13;7.43;;;17.10;98.80;;;;;;6239127;23;20408;-85
2021/07/21 01:54:25;;;;;;;8.60;7.80;;;17.00;99.00;;;;;;6238985;23;20495;-85
2021/07/21 01:56:52;;;;;;;11.90;8.23;;;17.00;99.30;;;;;;6239616;23;20786;-85
2021/07/21 01:59:20;;;;;;;7.97;7.20;;;16.90;99.40;;;;;;6239228;23;20443;-85
2021/07/21 02:01:49;;;;;;;9.20;8.37;;;16.90;99.70;;;;;;6238396;23;20414;-85
2021/07/21 02:04:16;;;;;;;8.60;7.70;;;16.80;99.80;;;;;;6239462;23;20543;-85
2021/07/21 02:06:43;;;;;;;8.30;7.50;;;16.80;99.80;;;;;;6238448;23;20433;-85
2021/07/21 02:09:11;;;;;;;8.97;8.07;;;16.80;99.90;;;;;;6238687;23;20404;-85
2021/07/21 02:11:40;;;;;;;11.00;8.80;;;16.70;99.90;;;;;;6239373;23;20407;-85
2021/07/21 02:14:08;;;;;;;9.20;8.30;;;16.70;99.90;;;;;;6238129;23;20484;-85
2021/07/21 02:16:37;;;;;;;10.20;9.20;;;16.70;99.90;;;;;;6238915;23;20491;-85
2021/07/21 02:19:07;;;;;;;10.40;8.10;;;16.70;99.90;;;;;;6238556;23;20458;-85
2021/07/21 02:21:37;;;;;;;9.77;8.20;;;16.70;99.90;;;;;;6239113;23;20755;-85
2021/07/21 02:24:04;;;;;;;9.77;8.83;;;16.70;99.90;;;;;;6238228;23;20391;-85
2021/07/21 02:26:36;;;;;;;11.03;8.33;;;16.70;99.90;;;;;;6236880;23;20503;-85
2021/07/21 02:29:04;;;;;;;10.60;8.17;;;16.60;99.90;;;;;;6238520;23;20398;-85
2021/07/21 02:31:34;;;;;;;11.07;9.87;;;16.60;99.90;;;;;;6237150;23;20412;-85
2021/07/21 02:34:03;;;;;;;10.70;8.60;;;16.60;99.90;;;;;;6238040;23;20398;-85
2021/07/21 02:36:32;;;;;;;10.27;8.13;;;16.60;99.90;;;;;;6238176;23;20427;-85
2021/07/21 02:39:00;;;;;;;9.17;8.37;;;16.60;99.90;;;;;;6238442;23;20442;-85
2021/07/21 02:41:27;;;;;;;10.97;8.40;;;16.50;99.90;;;;;;6238584;23;20806;-85
2021/07/21 02:43:54;;;;;;;10.37;9.27;;;16.60;99.90;;;;;;6238793;23;20406;-85
2021/07/21 02:46:21;;;;;;;11.20;9.33;;;16.50;99.90;;;;;;6238760;23;20430;-85
2021/07/21 02:48:48;;;;;;;13.10;9.57;;;16.50;99.90;;;;;;6238216;23;20430;-86
2021/07/21 02:51:21;;;;;;;9.03;7.90;;;16.50;99.90;;;;;;6238064;23;20409;-85
2021/07/21 02:53:57;;;;;;;13.20;9.50;;;16.50;99.90;;;;;;6238509;23;20713;-85
2021/07/21 02:56:26;;;;;;;10.60;9.00;;;16.50;99.90;;;;;;6238494;23;20447;-85
2021/07/21 02:59:01;;;;;;;9.40;8.20;;;16.50;99.90;;;;;;6238092;23;20432;-85
2021/07/21 03:01:29;;;;;;;8.90;7.53;;;16.50;99.90;;;;;;6238511;23;20422;-85
2021/07/21 03:03:56;;;;;;;12.60;9.60;;;16.40;99.90;;;;;;6239401;23;20475;-85
2021/07/21 03:06:26;;;;;;;12.20;9.33;;;16.40;99.90;;;;;;6237462;23;20423;-85
2021/07/21 03:08:55;;;;;;;9.70;8.70;;;16.40;99.90;;;;;;6238492;23;20404;-85
2021/07/21 03:11:24;;;;;;;10.03;8.60;;;16.40;99.90;;;;;;6238158;23;20420;-85
2021/07/21 03:13:54;;;;;;;9.67;8.67;;;16.30;99.90;;;;;;6238179;23;20407;-86
2021/07/21 03:16:25;;;;;;;14.57;9.20;;;16.30;99.90;;;;;;6238472;23;20490;-85
2021/07/21 03:18:53;;;;;;;9.30;8.10;;;16.30;99.90;;;;;;6238588;23;20399;-85
2021/07/21 03:21:22;;;;;;;9.10;8.30;;;16.30;99.90;;;;;;6238074;23;20399;-85
2021/07/21 03:23:49;;;;;;;11.20;9.27;;;16.30;99.90;;;;;;6238425;23;20592;-85
2021/07/21 03:26:20;;;;;;;11.50;9.50;;;16.20;99.90;;;;;;6237863;23;20823;-85
2021/07/21 03:28:48;;;;;;;10.50;9.40;;;16.20;99.90;;;;;;6238572;23;20458;-86
2021/07/21 03:31:15;;;;;;;13.23;10.57;;;16.20;99.90;;;;;;6238287;23;20407;-85
2021/07/21 03:33:45;;;;;;;8.20;7.40;;;16.20;99.90;;;;;;6238656;23;20517;-86
2021/07/21 03:36:13;;;;;;;10.57;8.90;;;16.20;99.90;;;;;;6238020;23;20446;-85
2021/07/21 03:38:42;;;;;;;10.43;9.00;;;16.20;99.90;;;;;;6237328;23;20473;-86
2021/07/21 03:41:09;;;;;;;10.70;9.23;;;16.10;99.90;;;;;;6238146;23;20452;-85
2021/07/21 03:43:38;;;;;;;11.00;8.33;;;16.10;99.90;;;;;;6237714;23;20399;-85
2021/07/21 03:46:05;;;;;;;12.70;9.50;;;16.10;99.90;;;;;;6238374;23;20479;-86
2021/07/21 03:48:32;;;;;;;14.50;9.63;;;16.10;99.90;;;;;;6237354;23;20424;-85
2021/07/21 03:51:00;;;;;;;11.10;8.53;;;16.10;99.90;;;;;;6237727;23;20439;-85
2021/07/21 03:53:28;;;;;;;9.80;7.73;;;16.10;99.90;;;;;;6237935;23;20479;-85
2021/07/21 03:55:57;;;;;;;15.80;8.73;;;16.10;99.90;;;;;;6237507;23;20407;-85
2021/07/21 03:58:24;;;;;;;9.70;8.80;;;16.00;99.90;;;;;;6237717;23;20855;-85
2021/07/21 04:00:54;;;;;;;10.43;9.33;;;16.00;99.90;;;;;;6237178;23;20451;-84
2021/07/21 04:03:24;;;;;;;12.27;8.83;;;16.00;99.90;;;;;;6238193;23;20392;-85
2021/07/21 04:05:53;;;;;;;13.40;11.27;;;15.90;99.90;;;;;;6237582;23;20405;-85
2021/07/21 04:08:20;;;;;;;9.73;8.70;;;15.90;99.90;;;;;;6237887;23;20443;-85
2021/07/21 04:10:50;;;;;;;11.73;9.13;;;15.90;99.90;;;;;;6237434;23;20402;-87
2021/07/21 04:13:18;;;;;;;10.00;8.30;;;15.90;99.90;;;;;;6241081;23;20396;-84
2021/07/21 04:15:46;;;;;;;11.97;9.17;;;15.90;99.90;;;;;;6241197;23;20440;-85
2021/07/21 04:18:15;;;;;;;12.73;9.43;;;15.90;99.90;;;;;;6241550;23;20430;-85
2021/07/21 04:20:43;;;;;;;11.77;9.60;;;15.90;99.90;;;;;;6241400;23;20513;-85
2021/07/21 04:23:11;;;;;;;15.30;10.13;;;15.90;99.90;;;;;;6241319;23;20475;-85
2021/07/21 04:25:38;;;;;;;12.40;8.50;;;15.90;99.90;;;;;;6241490;23;20407;-85
2021/07/21 04:28:05;;;;;;;11.47;10.03;;;16.00;99.90;;;;;;6241432;23;20489;-83
2021/07/21 04:30:33;;;;;;;10.10;9.10;;;15.90;99.90;;;;;;6241898;23;20482;-83
2021/07/21 04:33:01;;;;;;;10.63;8.90;;;15.90;99.90;;;;;;6241625;23;20687;-83
2021/07/21 04:35:30;;;;;;;10.37;9.37;;;15.90;99.90;;;;;;6241425;22;20482;-82
2021/07/21 04:37:58;;;;;;;11.20;9.10;;;15.90;99.90;;;;;;6241443;23;20513;-83
2021/07/21 04:40:25;;;;;;;11.70;9.07;;;15.90;99.90;;;;;;6241581;23;20505;-84
2021/07/21 04:42:52;;;;;;;10.60;9.57;;;16.00;99.90;;;;;;6241227;23;20401;-84
2021/07/21 04:45:21;;;;;;;9.60;8.30;;;16.00;99.90;;;;;;6241415;23;20482;-83
2021/07/21 04:47:49;;;;;;;12.17;9.57;;;16.00;99.90;;;;;;6239759;23;20447;-83
2021/07/21 04:50:20;;;;;;;9.90;8.90;;;16.00;99.90;;;;;;6239408;23;20395;-83
2021/07/21 04:52:49;;;;;;;10.93;8.53;;;16.10;99.90;;;;;;6238810;23;20450;-83
2021/07/21 04:55:17;;;;;;;10.43;9.33;;;16.10;99.90;;;;;;6238260;23;20410;-83
2021/07/21 04:57:45;;;;;;;12.07;10.03;;;16.10;99.90;;;;;;6239283;23;20437;-83
2021/07/21 05:00:13;;;;;;;11.40;9.27;;;16.10;99.90;;;;;;6239842;23;20478;-84
2021/07/21 05:02:40;;;;;;;12.07;8.67;;;16.20;99.90;;;;;;6239290;23;20411;-83
2021/07/21 05:05:07;;;;;;;10.40;9.40;;;16.20;99.90;;;;;;6239477;23;20783;-84
2021/07/21 05:07:34;;;;;;;11.13;10.00;;;16.20;99.90;;;;;;6239054;23;20409;-83
2021/07/21 05:10:02;;;;;;;9.40;8.50;;;16.30;99.90;;;;;;6239488;23;20481;-83
2021/07/21 05:12:29;;;;;;;13.60;9.77;;;16.20;99.90;;;;;;6239042;23;20402;-83
2021/07/21 05:14:56;;;;;;;12.07;10.07;;;16.30;99.90;;;;;;6239538;23;20406;-83
2021/07/21 05:17:22;;;;;;;11.53;9.93;;;16.30;99.90;;;;;;6241145;23;20445;-83
2021/07/21 05:19:49;;;;;;;11.47;10.03;;;16.40;99.90;;;;;;6240550;23;20439;-83
2021/07/21 05:22:16;;;;;;;11.97;9.63;;;16.40;99.90;;;;;;6241516;23;20481;-83
2021/07/21 05:24:42;;;;;;;11.50;10.23;;;16.50;99.90;;;;;;6242054;23;20417;-83
2021/07/21 05:27:10;;;;;;;10.57;9.57;;;16.50;99.90;;;;;;6241976;23;20480;-83
2021/07/21 05:29:37;;;;;;;11.70;9.03;;;16.60;99.90;;;;;;6240526;23;20474;-83
2021/07/21 05:32:05;;;;;;;10.47;9.43;;;16.70;99.90;;;;;;6240846;23;20442;-83
2021/07/21 05:34:32;;;;;;;11.17;8.97;;;16.70;99.90;;;;;;6240049;23;20414;-83
2021/07/21 05:36:59;;;;;;;14.70;10.60;;;16.80;99.90;;;;;;6240561;23;20505;-83
2021/07/21 05:39:25;;;;;;;12.80;9.57;;;16.80;99.90;;;;;;6239943;23;20419;-83
2021/07/21 05:41:56;;;;;;;11.50;9.90;;;16.90;99.90;;;;;;6240018;23;20460;-84
2021/07/21 05:44:24;;;;;;;11.17;10.07;;;17.00;99.90;;;;;;6230979;23;20490;-85
2021/07/21 05:46:51;;;;;;;12.13;9.30;;;17.00;99.90;;;;;;6226391;23;20488;-85
2021/07/21 05:49:18;;;;;;;10.43;9.00;;;17.10;99.90;;;;;;6226371;23;20438;-84
2021/07/21 05:51:44;;;;;;;11.10;10.00;;;17.10;99.90;;;;;;6225741;23;20746;-85
2021/07/21 05:54:11;;;;;;;11.07;9.97;;;17.20;99.90;;;;;;6225795;23;20419;-85
2021/07/21 05:56:40;;;;;;;11.33;10.17;;;17.20;99.90;;;;;;6225983;23;20504;-85
2021/07/21 05:59:06;;;;;;;11.97;10.00;;;17.30;99.90;;;;;;6225678;23;20412;-85
2021/07/21 06:01:35;;;;;;;12.57;10.33;;;17.30;99.90;;;;;;6224604;23;20454;-85
2021/07/21 06:04:02;;;;;;;11.57;9.90;;;17.40;99.90;;;;;;6226073;23;20411;-85
2021/07/21 06:06:29;;;;;;;12.93;10.50;;;17.40;99.90;;;;;;6225260;23;20427;-85
2021/07/21 06:08:55;;;;;;;12.10;9.80;;;17.40;99.90;;;;;;6226182;23;20407;-85
2021/07/21 06:11:22;;;;;;;12.13;10.80;;;17.50;99.90;;;;;;6226121;23;20410;-85
2021/07/21 06:13:49;;;;;;;14.80;10.40;;;17.50;99.90;;;;;;6225990;23;20412;-84
2021/07/21 06:16:16;;;;;;;10.53;9.50;;;17.60;99.90;;;;;;6226050;23;20466;-85
2021/07/21 06:18:45;;;;;;;11.30;9.37;;;17.70;99.90;;;;;;6226026;23;20421;-85
2021/07/21 06:21:12;;;;;;;16.30;11.50;;;17.80;99.90;;;;;;6225361;23;20961;-85
2021/07/21 06:23:38;;;;;;;14.07;10.33;;;17.80;99.90;;;;;;6224714;23;20407;-85
2021/07/21 06:26:05;;;;;;;10.53;9.50;;;17.80;99.90;;;;;;6227066;23;20411;-85
2021/07/21 06:28:32;;;;;;;12.20;10.87;;;17.80;99.90;;;;;;6233943;23;20412;-85
2021/07/21 06:30:59;;;;;;;11.70;10.37;;;17.90;99.90;;;;;;6237748;23;20404;-85
2021/07/21 06:33:26;;;;;;;15.77;10.87;;;18.00;99.90;;;;;;6236296;23;20475;-84
2021/07/21 06:35:54;;;;;;;11.17;10.07;;;18.10;99.90;;;;;;6236476;23;20433;-85
2021/07/21 06:38:21;;;;;;;12.63;11.33;;;18.10;99.90;;;;;;6239608;23;20411;-80
2021/07/21 06:40:48;;;;;;;13.83;11.47;;;18.10;99.90;;;;;;6235091;23;20526;-80
2021/07/21 06:43:15;;;;;;;11.80;10.60;;;18.20;99.90;;;;;;6236313;23;20418;-81
2021/07/21 06:45:42;;;;;;;14.40;10.60;;;18.20;99.90;;;;;;6236921;23;20479;-81
2021/07/21 06:48:08;;;;;;;11.60;9.40;;;18.20;99.90;;;;;;6234771;23;20542;-81
2021/07/21 06:50:36;;;;;;;15.30;12.47;;;18.20;99.90;;;;;;6236401;23;20471;-80
2021/07/21 06:53:04;;;;;;;14.03;11.80;;;18.20;99.90;;;;;;6236978;23;20412;-81
2021/07/21 06:55:31;;;;;;;11.30;9.90;;;18.20;99.90;;;;;;6237294;23;20479;-81
2021/07/21 06:57:58;;;;;;;11.60;10.40;;;18.30;99.90;;;;;;6236330;23;20997;-79
2021/07/21 07:00:25;;;;;;;11.30;10.20;;;18.40;99.90;;;;;;6238924;23;20451;-82
2021/07/21 07:02:52;;;;;;;13.90;10.10;;;18.50;99.90;;;;;;6231923;23;20408;-82
2021/07/21 07:05:19;;;;;;;13.80;10.30;;;18.60;99.90;;;;;;6232583;23;20929;-83
2021/07/21 07:07:46;;;;;;;11.07;9.63;;;18.70;99.90;;;;;;6231513;23;20427;-82
2021/07/21 07:10:15;;;;;;;12.27;9.40;;;18.70;99.90;;;;;;6230612;23;20422;-81
2021/07/21 07:12:41;;;;;;;10.23;9.17;;;18.80;99.90;;;;;;6238319;23;20412;-79
2021/07/21 07:15:09;;;;;;;11.23;10.13;;;18.80;99.90;;;;;;6238945;23;20463;-79
2021/07/21 07:17:36;;;;;;;14.73;11.53;;;18.90;99.90;;;;;;6236565;23;20422;-81
2021/07/21 07:20:03;;;;;;;12.57;10.17;;;19.00;99.90;;;;;;6236473;23;20392;-79
2021/07/21 07:22:30;;;;;;;12.20;10.37;;;19.10;99.90;;;;;;6236206;23;20397;-79
2021/07/21 07:24:57;;;;;;;11.47;10.23;;;19.20;99.90;;;;;;6235768;23;20487;-83
2021/07/21 07:27:25;;;;;;;9.97;8.97;;;19.20;99.90;;;;;;6233071;23;20432;-82
2021/07/21 07:29:52;;;;;;;10.53;9.40;;;19.20;99.90;;;;;;6236901;23;20403;-82
2021/07/21 07:32:18;;;;;;;12.07;10.80;;;19.30;99.90;;;;;;6240816;23;20472;-83
2021/07/21 07:34:45;;;;;;;11.50;9.97;;;19.40;99.90;;;;;;6241163;23;20420;-83
2021/07/21 07:37:12;;;;;;;11.63;10.43;;;19.50;99.90;;;;;;6240986;23;20427;-83
2021/07/21 07:39:39;;;;;;;14.90;10.67;;;19.60;99.90;;;;;;6241130;23;20389;-83
2021/07/21 07:42:07;;;;;;;10.90;9.80;;;19.60;99.90;;;;;;6240857;23;20441;-83
2021/07/21 07:44:35;;;;;;;13.03;10.20;;;19.70;99.90;;;;;;6241236;23;20389;-81
2021/07/21 07:47:02;;;;;;;11.70;10.40;;;19.80;99.90;;;;;;6240200;23;20504;-82
2021/07/21 07:49:28;;;;;;;11.03;9.90;;;19.80;99.90;;;;;;6241010;23;20398;-83
2021/07/21 07:51:55;;;;;;;10.00;9.10;;;19.90;99.90;;;;;;6238357;23;20396;-83
2021/07/21 07:54:22;;;;;;;10.90;9.67;;;20.00;99.90;;;;;;6238904;23;20476;-83
2021/07/21 07:56:49;;;;;;;11.93;10.50;;;20.10;99.90;;;;;;6239122;23;20430;-83
2021/07/21 07:59:16;;;;;;;10.10;9.20;;;20.20;99.90;;;;;;6239701;23;20397;-83
2021/07/21 08:01:44;;;;;;;9.53;8.37;;;20.30;99.90;;;;;;6240026;23;20502;-85
2021/07/21 08:04:11;;;;;;;10.40;9.47;;;20.50;99.90;;;;;;6240442;23;20411;-83
2021/07/21 08:06:37;;;;;;;10.93;9.70;;;20.50;99.90;;;;;;6239370;23;20501;-83
2021/07/21 08:09:12;;;;;;;11.27;10.07;;;20.60;99.90;;;;;;6241499;23;20475;-81
2021/07/21 08:11:39;;;;;;;11.83;9.73;;;20.70;99.20;;;;;;6240274;23;20393;-82
2021/07/21 08:14:06;;;;;;;9.83;8.93;;;20.80;99.60;;;;;;6238998;23;20472;-82
2021/07/21 08:16:33;;;;;;;10.63;8.93;;;20.90;99.60;;;;;;6239583;23;20426;-83
2021/07/21 08:19:01;;;;;;;10.40;9.40;;;20.90;98.50;;;;;;6238990;23;20415;-83
2021/07/21 08:21:27;;;;;;;11.00;9.80;;;21.00;99.30;;;;;;6239161;23;20491;-82
2021/07/21 08:23:54;;;;;;;9.77;8.83;;;21.10;99.50;;;;;;6239659;23;20473;-83
2021/07/21 08:26:21;;;;;;;10.77;9.57;;;21.20;98.00;;;;;;6235808;23;20430;-83
2021/07/21 08:28:48;;;;;;;10.97;8.60;;;21.20;98.00;;;;;;6230383;23;20410;-84
2021/07/21 08:31:14;;;;;;;10.20;8.73;;;21.20;98.30;;;;;;6229459;23;21003;-84
2021/07/21 08:33:43;;;;;;;10.70;9.57;;;21.30;98.50;;;;;;6228458;23;20405;-84
2021/07/21 08:36:11;;;;;;;10.43;9.20;;;21.30;97.70;;;;;;6229744;23;20896;-84
2021/07/21 08:38:40;;;;;;;10.50;9.40;;;21.40;97.70;;;;;;6228647;23;20416;-84
2021/07/21 08:41:11;;;;;;;10.60;9.43;;;21.50;97.70;;;;;;6228106;23;20446;-84
2021/07/21 08:43:38;;;;;;;11.00;9.80;;;21.60;98.70;;;;;;6227443;23;20402;-84
2021/07/21 08:46:05;;;;;;;9.00;8.10;;;21.60;98.80;;;;;;6228739;23;20398;-83
2021/07/21 08:48:32;;;;;;;10.77;9.23;;;21.70;97.30;;;;;;6227894;23;20458;-84
2021/07/21 08:50:59;;;;;;;10.33;9.33;;;21.80;98.10;;;;;;6228424;23;20417;-84
2021/07/21 08:53:28;;;;;;;11.33;10.23;;;21.90;97.80;;;;;;6230220;23;20410;-83
2021/07/21 08:55:55;;;;;;;10.63;9.57;;;22.00;97.50;;;;;;6231179;23;20421;-84
2021/07/21 08:58:22;;;;;;;10.23;9.27;;;22.10;97.20;;;;;;6231066;23;20409;-84
2021/07/21 09:00:52;;;;;;;9.17;8.33;;;22.10;96.50;;;;;;6229954;23;20429;-84
2021/07/21 09:03:21;;;;;;;11.07;9.90;;;22.30;97.10;;;;;;6230115;23;20396;-84
2021/07/21 09:05:48;;;;;;;10.43;9.37;;;22.30;97.10;;;;;;6230638;23;20511;-84
2021/07/21 09:08:16;;;;;;;11.77;9.70;;;22.50;96.60;;;;;;6229377;23;20421;-84
2021/07/21 09:10:45;;;;;;;9.93;8.77;;;22.50;95.80;;;;;;6229584;23;20411;-84
2021/07/21 09:13:13;;;;;;;9.10;8.20;;;22.60;95.80;;;;;;6229145;23;20403;-83
2021/07/21 09:15:42;;;;;;;9.47;8.57;;;22.60;95.90;;;;;;6230450;23;20435;-83
2021/07/21 09:18:11;;;;;;;9.27;8.37;;;22.70;95.90;;;;;;6229775;23;20431;-84
2021/07/21 09:20:39;;;;;;;13.07;9.43;;;22.80;96.00;;;;;;6229859;23;20408;-84
2021/07/21 09:23:07;;;;;;;10.30;9.40;;;22.90;94.70;;;;;;6230082;23;20403;-84
2021/07/21 09:25:35;;;;;;;9.97;8.90;;;23.00;95.10;;;;;;6227473;23;20405;-83
2021/07/21 09:28:07;;;;;;;9.80;8.90;;;23.10;95.20;;;;;;6223811;23;20435;-84
2021/07/21 09:30:35;;;;;;;12.07;9.60;;;23.10;94.40;;;;;;6228352;23;20386;-84
2021/07/21 09:33:05;;;;;;;8.73;8.03;;;23.30;94.30;;;;;;6230190;23;20407;-84
2021/07/21 09:35:34;;;;;;;11.47;8.57;;;23.40;94.50;;;;;;6229861;23;20411;-84
2021/07/21 09:38:04;;;;;;;9.70;8.63;;;23.50;93.80;;;;;;6228088;23;20436;-84
2021/07/21 09:40:31;;;;;;;9.30;8.40;;;23.60;92.80;;;;;;6224108;23;20390;-84
2021/07/21 09:42:58;;;;;;;11.10;10.00;;;23.70;91.50;;;;;;6227415;23;20429;-85
2021/07/21 09:45:26;;;;;;;10.70;9.10;;;23.70;91.40;;;;;;6229979;23;20423;-86
2021/07/21 09:47:55;;;;;;;9.97;8.90;;;23.70;92.20;;;;;;6229722;23;20438;-84
2021/07/21 09:50:27;;;;;;;10.40;9.30;;;23.80;93.20;;;;;;6231193;23;20412;-84
2021/07/21 09:52:56;;;;;;;10.03;8.80;;;23.80;93.00;;;;;;6229268;23;20437;-85
2021/07/21 09:55:24;;;;;;;8.83;8.03;;;23.90;92.00;;;;;;6226857;23;20418;-84
2021/07/21 09:58:06;;;;;;;10.73;9.10;;;24.00;92.90;;;;;;6227224;23;20472;-85
2021/07/21 10:00:37;;;;;;;11.70;10.50;;;24.20;92.70;;;;;;6225423;23;20402;-85
2021/07/21 10:03:13;;;;;;;10.30;9.30;;;24.30;92.80;;;;;;6226091;23;20430;-85
2021/07/21 10:05:58;;;;;;;10.37;9.27;;;24.40;91.70;;;;;;6228061;23;20413;-85
2021/07/21 10:08:41;;;;;;;10.50;9.40;;;24.50;91.20;;;;;;6228336;23;20398;-85
2021/07/21 10:11:28;;;;;;;11.60;9.40;;;24.60;92.30;;;;;;6226904;23;20736;-85
2021/07/21 10:14:08;;;;;;;9.60;8.70;;;24.70;92.50;;;;;;6226158;23;20433;-85
2021/07/21 10:16:41;;;;;;;9.37;8.50;;;24.80;91.00;;;;;;6220632;23;20744;-85
2021/07/21 10:19:11;;;;;;;10.10;9.20;;;24.90;90.70;;;;;;6223473;23;20393;-85
2021/07/21 10:21:40;;;;;;;11.20;9.97;;;25.10;90.70;;;;;;6223724;23;20516;-85
2021/07/21 10:24:08;;;;;;;12.83;11.60;;;25.10;90.10;;;;;;6223426;23;20422;-84
2021/07/21 10:26:35;;;;;;;12.23;11.03;;;25.20;90.00;;;;;;6224435;23;20457;-86
2021/07/21 10:29:02;;;;;;;10.53;9.47;;;25.20;90.70;;;;;;6227926;23;20417;-86
2021/07/21 10:31:30;;;;;;;9.77;8.87;;;25.20;89.30;;;;;;6229142;23;20429;-85
2021/07/21 10:33:59;;;;;;;11.80;10.30;;;25.20;88.90;;;;;;6228827;23;20416;-86
2021/07/21 10:36:26;;;;;;;11.67;10.57;;;25.30;87.90;;;;;;6221874;23;20434;-85
2021/07/21 10:38:53;;;;;;;10.40;9.50;;;25.30;88.50;;;;;;6221264;23;20407;-84
2021/07/21 10:41:21;;;;;;;12.23;10.90;;;25.40;90.10;;;;;;6222676;23;20412;-82
2021/07/21 10:43:51;;;;;;;11.27;10.20;;;25.50;89.20;;;;;;6220952;23;20735;-85
2021/07/21 10:46:39;;;;;;;10.80;9.83;;;25.60;89.80;;;;;;6227773;23;20429;-87
2021/07/21 10:49:27;;;;;;;11.03;9.87;;;25.80;87.50;;;;;;6226362;23;20410;-85
2021/07/21 10:52:33;;;;;;;12.47;10.30;;;26.00;87.00;;;;;;6223450;23;20466;-84
2021/07/21 10:55:02;;;;;;;11.03;10.03;;;26.20;89.20;;;;;;6228040;23;20396;-84
2021/07/21 11:00:19;;;;;;;11.37;10.37;;;26.60;85.70;;;;;;6225948;23;20380;-84
2021/07/21 11:02:46;;;;;;;10.23;9.23;;;26.70;84.50;;;;;;6220651;23;20446;-85
2021/07/21 11:05:33;;;;;;;10.87;9.80;;;27.00;87.00;;;;;;6226723;23;20424;-85
2021/07/21 11:08:02;;;;;;;11.07;10.07;;;27.30;84.50;;;;;;6229447;23;20430;-84
2021/07/21 11:10:34;;;;;;;10.70;9.90;;;27.50;83.80;;;;;;6225285;23;20409;-86
2021/07/21 11:13:01;;;;;;;12.03;10.90;;;27.70;83.10;;;;;;6222634;23;20416;-85
2021/07/21 11:15:39;;;;;;;11.57;10.43;;;27.80;79.80;;;;;;6226749;23;20409;-84
2021/07/21 11:18:37;;;;;;;11.07;9.97;;;28.00;81.00;;;;;;6226618;23;20415;-85
2021/07/21 11:21:07;;;;;;;11.97;10.97;;;28.40;76.40;;;;;;6230696;23;20826;-86
2021/07/21 11:23:41;;;;;;;10.73;9.73;;;28.50;75.90;;;;;;6230212;23;20444;-84
2021/07/21 11:26:43;;;;;;;11.27;10.30;;;28.20;76.00;;;;;;6229514;23;20399;-84
2021/07/21 11:29:47;;;;;;;13.27;11.90;;;28.10;76.80;;;;;;6228076;23;20396;-85
2021/07/21 11:32:30;;;;;;;11.60;10.43;;;28.40;79.20;;;;;;6223859;23;20403;-87
2021/07/21 11:34:59;;;;;;;11.73;10.57;;;29.10;78.00;;;;;;6226177;23;20484;-85
2021/07/21 11:37:35;;;;;;;11.80;10.80;;;29.60;77.90;;;;;;6232449;23;20438;-84
2021/07/21 11:40:16;;;;;;;11.67;10.57;;;30.20;75.20;;;;;;6232038;23;20395;-85
2021/07/21 11:42:42;;;;;;;11.30;10.20;;;30.80;69.90;;;;;;6222792;23;20433;-86
2021/07/21 11:45:22;;;;;;;12.20;11.10;;;31.10;67.70;;;;;;6226922;23;20416;-86
2021/07/21 11:47:56;;;;;;;10.20;9.30;;;31.20;68.30;;;;;;6214724;23;20523;-84
2021/07/21 11:50:24;;;;;;;10.10;9.30;;;31.60;66.50;;;;;;6223943;23;20407;-84
2021/07/21 11:52:53;;;;;;;10.60;9.63;;;31.60;63.90;;;;;;6225239;23;20480;-85
2021/07/21 11:55:23;;;;;;;12.10;11.10;;;31.40;62.60;;;;;;6232576;23;20407;-85
2021/07/21 11:57:51;;;;;;;11.57;10.47;;;31.40;62.80;;;;;;6235642;23;20436;-88
2021/07/21 12:00:20;;;;;;;11.70;10.60;;;31.40;63.10;;;;;;6234088;23;20478;-85
2021/07/21 12:02:47;;;;;;;10.93;10.03;;;31.80;64.70;;;;;;6227763;23;20486;-86
2021/07/21 12:05:14;;;;;;;11.73;10.67;;;32.00;59.60;;;;;;6223494;23;20412;-86
2021/07/21 12:07:42;;;;;;;11.70;10.70;;;32.20;59.40;;;;;;6221480;23;20462;-84
2021/07/21 12:10:16;;;;;;;11.70;10.70;;;32.40;58.70;;;;;;6222873;23;20466;-85
2021/07/21 12:12:43;;;;;;;12.13;10.93;;;32.50;58.70;;;;;;6221736;23;20392;-84
2021/07/21 12:15:12;;;;;;;10.93;9.77;;;32.60;57.00;;;;;;6219447;23;20907;-85
2021/07/21 12:17:39;;;;;;;12.60;11.30;;;32.80;57.50;;;;;;6219014;23;20435;-85
2021/07/21 12:20:08;;;;;;;11.77;10.67;;;33.10;57.40;;;;;;6227046;23;20466;-84
2021/07/21 12:22:37;;;;;;;12.27;11.10;;;33.30;56.90;;;;;;6220933;23;20775;-87
2021/07/21 12:25:07;;;;;;;12.83;11.43;;;33.30;55.10;;;;;;6224515;23;20439;-84
2021/07/21 12:27:37;;;;;;;11.53;10.47;;;33.20;56.30;;;;;;6227349;23;20434;-84
2021/07/21 12:30:07;;;;;;;11.00;10.00;;;33.20;54.80;;;;;;6228640;23;20415;-85
2021/07/21 12:32:34;;;;;;;11.30;10.30;;;33.20;54.70;;;;;;6228554;23;20440;-84
2021/07/21 12:35:05;;;;;;;11.90;10.80;;;33.20;54.30;;;;;;6232226;23;20418;-87
2021/07/21 12:37:36;;;;;;;11.33;10.33;;;33.40;54.90;;;;;;6227143;23;20440;-85
2021/07/21 12:40:07;;;;;;;11.70;10.70;;;33.70;52.60;;;;;;6230546;23;20706;-84
2021/07/21 12:42:35;;;;;;;10.80;10.00;;;34.10;54.30;;;;;;6228694;23;20396;-87
2021/07/21 12:45:07;;;;;;;10.37;9.57;;;34.60;53.40;;;;;;6228169;23;20405;-85
2021/07/21 12:47:35;;;;;;;12.00;11.00;;;34.70;52.00;;;;;;6224467;23;20459;-86
2021/07/21 12:50:06;;;;;;;11.13;9.90;;;34.50;50.80;;;;;;6225549;23;20413;-85
2021/07/21 12:52:38;;;;;;;11.23;10.23;;;34.10;51.70;;;;;;6226231;23;20432;-84